Time;durP1;ratioP1;P1;durP2;ratioP2;P2;SDS_P1;SDS_P2;PMS_P1;PMS_P2;Temp;Humidity;BMP_temperature;BMP_pressure;BME280_temperature;BME280_humidity;BME280_pressure;Samples;Min_cycle;Max_cycle;Signal;HPM_P1;HPM_P2
2022/08/18 00:02:02;;;;;;;9.75;8.57;;;26.70;99.90;;;;;;5049610;28;20212;-72
2022/08/18 00:04:29;;;;;;;9.27;8.55;;;26.70;99.90;;;;;;5049616;28;20223;-73
2022/08/18 00:06:57;;;;;;;9.00;8.25;;;26.70;99.90;;;;;;5049345;28;20216;-72
2022/08/18 00:09:23;;;;;;;8.98;8.27;;;26.70;99.90;;;;;;5049309;28;20214;-70
2022/08/18 00:11:50;;;;;;;9.95;8.55;;;26.60;99.90;;;;;;5049158;28;20208;-71
2022/08/18 00:14:19;;;;;;;9.38;8.57;;;26.60;99.90;;;;;;5048595;28;20212;-71
2022/08/18 00:16:46;;;;;;;9.95;8.95;;;26.60;99.90;;;;;;5049046;28;20215;-72
2022/08/18 00:19:15;;;;;;;9.48;8.68;;;26.60;99.90;;;;;;5048952;28;20210;-71
2022/08/18 00:21:41;;;;;;;9.65;8.73;;;26.60;99.90;;;;;;5049240;28;20208;-70
2022/08/18 00:24:08;;;;;;;9.43;8.60;;;26.50;99.90;;;;;;5048743;28;20773;-70
2022/08/18 00:26:35;;;;;;;9.82;8.80;;;26.50;99.90;;;;;;5049158;28;20210;-71
2022/08/18 00:29:02;;;;;;;11.45;9.40;;;26.50;99.90;;;;;;5049035;28;20813;-70
2022/08/18 00:31:28;;;;;;;10.05;9.02;;;26.40;99.90;;;;;;5048809;28;20222;-70
2022/08/18 00:33:55;;;;;;;9.88;8.98;;;26.40;99.90;;;;;;5048120;28;20242;-70
2022/08/18 00:36:23;;;;;;;11.60;9.18;;;26.40;99.90;;;;;;5048565;28;20673;-70
2022/08/18 00:38:50;;;;;;;9.93;9.00;;;26.40;99.90;;;;;;5048688;28;20231;-70
2022/08/18 00:41:17;;;;;;;9.93;8.98;;;26.30;99.90;;;;;;5048151;28;20247;-71
2022/08/18 00:43:46;;;;;;;10.43;9.27;;;26.30;99.90;;;;;;5048495;28;20301;-70
2022/08/18 00:46:16;;;;;;;9.77;8.98;;;26.20;99.90;;;;;;5048682;28;20212;-71
2022/08/18 00:48:43;;;;;;;9.70;8.93;;;26.30;99.90;;;;;;5048685;28;20204;-71
2022/08/18 00:51:13;;;;;;;10.00;8.55;;;26.20;99.90;;;;;;5048699;28;20204;-71
2022/08/18 00:53:46;;;;;;;9.18;8.48;;;26.20;99.90;;;;;;5048368;28;20263;-73
2022/08/18 00:56:18;;;;;;;10.18;9.18;;;26.10;99.90;;;;;;5048145;28;20418;-72
2022/08/18 00:58:50;;;;;;;9.60;8.80;;;26.20;99.90;;;;;;5048359;28;20192;-72
2022/08/18 01:01:22;;;;;;;9.82;9.02;;;26.10;99.90;;;;;;5047876;28;20642;-72
2022/08/18 01:03:53;;;;;;;9.95;9.18;;;26.10;99.90;;;;;;5048388;28;20196;-72
2022/08/18 01:06:28;;;;;;;11.25;9.25;;;26.10;99.90;;;;;;5048068;28;20192;-72
2022/08/18 01:08:56;;;;;;;9.85;8.95;;;26.10;99.90;;;;;;5047939;28;20646;-72
2022/08/18 01:11:23;;;;;;;9.10;8.35;;;26.00;99.90;;;;;;5047925;28;20204;-72
2022/08/18 01:13:50;;;;;;;10.48;9.43;;;26.10;99.90;;;;;;5047997;28;20236;-72
2022/08/18 01:21:50;;;;;;;10.27;9.02;;;26.00;99.90;;;;;;5048068;28;20195;-72
2022/08/18 01:24:20;;;;;;;9.48;8.63;;;26.00;99.90;;;;;;5048112;28;20235;-72
2022/08/18 01:26:49;;;;;;;9.70;9.00;;;25.90;99.90;;;;;;5047906;28;20208;-72
2022/08/18 01:29:18;;;;;;;12.00;9.35;;;25.80;99.90;;;;;;5047902;28;20208;-73
2022/08/18 01:31:54;;;;;;;10.07;9.18;;;25.90;99.90;;;;;;5047798;28;20560;-72
2022/08/18 01:34:23;;;;;;;9.40;8.73;;;25.90;99.90;;;;;;5027822;28;20694;-72
2022/08/18 01:36:51;;;;;;;9.98;9.13;;;25.90;99.90;;;;;;5028163;28;20294;-72
2022/08/18 01:39:19;;;;;;;10.10;9.30;;;25.80;99.90;;;;;;5027505;28;20641;-72
2022/08/18 01:41:46;;;;;;;9.38;8.60;;;25.80;99.90;;;;;;5041318;28;20753;-72
2022/08/18 01:44:13;;;;;;;9.57;8.85;;;25.80;99.90;;;;;;5047573;28;20299;-72
2022/08/18 01:46:41;;;;;;;9.27;8.48;;;25.90;99.90;;;;;;5047812;28;20208;-72
2022/08/18 01:49:09;;;;;;;9.60;8.43;;;25.80;99.90;;;;;;5047398;28;20856;-72
2022/08/18 01:51:40;;;;;;;10.25;9.07;;;25.90;99.90;;;;;;5047872;28;20212;-72
2022/08/18 01:54:08;;;;;;;10.43;9.60;;;25.80;99.90;;;;;;5047238;28;20231;-72
2022/08/18 01:56:36;;;;;;;10.07;9.38;;;25.80;99.90;;;;;;5047436;28;20700;-72
2022/08/18 01:59:04;;;;;;;10.18;9.15;;;25.80;99.90;;;;;;5047564;28;20204;-72
2022/08/18 02:01:31;;;;;;;10.07;9.13;;;25.70;99.90;;;;;;5047742;28;20208;-72
2022/08/18 02:04:00;;;;;;;10.32;9.25;;;25.70;99.90;;;;;;5047494;28;20208;-72
2022/08/18 02:06:28;;;;;;;9.13;8.32;;;25.70;99.90;;;;;;5047493;28;20208;-72
2022/08/18 02:08:55;;;;;;;9.75;8.75;;;25.80;99.90;;;;;;5047281;28;20676;-72
2022/08/18 02:11:21;;;;;;;9.10;8.20;;;25.70;99.90;;;;;;5047214;28;20219;-72
2022/08/18 02:13:50;;;;;;;9.73;8.73;;;25.80;99.90;;;;;;5047232;28;20228;-72
2022/08/18 02:16:17;;;;;;;9.52;7.93;;;25.80;99.90;;;;;;5047390;28;20210;-72
2022/08/18 02:18:43;;;;;;;8.57;7.97;;;25.80;99.90;;;;;;5047417;28;20577;-73
2022/08/18 02:21:13;;;;;;;9.32;8.52;;;25.80;99.90;;;;;;5047245;28;20204;-72
2022/08/18 02:23:41;;;;;;;9.10;8.20;;;25.80;99.90;;;;;;5047308;28;20200;-73
2022/08/18 02:26:11;;;;;;;8.15;7.55;;;25.80;99.90;;;;;;5046799;28;20269;-70
2022/08/18 02:28:38;;;;;;;10.38;7.95;;;25.80;99.90;;;;;;5046692;28;20583;-70
2022/08/18 02:31:11;;;;;;;9.55;8.52;;;25.80;99.90;;;;;;5047138;28;20210;-71
2022/08/18 02:33:39;;;;;;;8.80;8.15;;;25.80;99.90;;;;;;5041672;28;20232;-69
2022/08/18 02:36:06;;;;;;;9.05;8.25;;;25.80;99.90;;;;;;5045067;28;20216;-68
2022/08/18 02:38:34;;;;;;;9.18;8.45;;;25.90;99.90;;;;;;5044879;28;20578;-69
2022/08/18 02:41:08;;;;;;;9.23;8.07;;;25.90;99.90;;;;;;5044085;28;20698;-68
2022/08/18 02:43:35;;;;;;;9.50;8.55;;;25.90;99.90;;;;;;5044333;28;20658;-69
2022/08/18 02:46:04;;;;;;;10.63;9.05;;;25.90;99.90;;;;;;5045185;28;20220;-69
2022/08/18 02:48:34;;;;;;;8.45;7.85;;;25.90;99.90;;;;;;5045151;28;20334;-70
2022/08/18 02:51:06;;;;;;;8.35;7.55;;;25.90;99.90;;;;;;5045158;28;21032;-70
2022/08/18 02:53:33;;;;;;;9.05;8.20;;;25.90;99.90;;;;;;5045074;28;20232;-70
2022/08/18 02:56:20;;;;;;;9.77;8.88;;;25.90;99.90;;;;;;5045149;28;20219;-70
2022/08/18 02:58:48;;;;;;;8.68;7.97;;;25.80;99.90;;;;;;5048487;28;20198;-69
2022/08/18 03:01:14;;;;;;;8.65;8.13;;;25.80;99.90;;;;;;5048003;28;20204;-68
2022/08/18 03:03:43;;;;;;;9.65;8.68;;;25.70;99.90;;;;;;5047992;28;20693;-68
2022/08/18 03:06:10;;;;;;;9.95;9.05;;;25.70;99.90;;;;;;5048445;28;20235;-68
2022/08/18 03:08:37;;;;;;;9.10;8.40;;;25.60;99.90;;;;;;5046745;28;20200;-67
2022/08/18 03:11:06;;;;;;;9.43;8.48;;;25.60;99.90;;;;;;5050108;28;20201;-66
2022/08/18 03:13:33;;;;;;;8.80;8.05;;;25.50;99.90;;;;;;5047759;28;20757;-67
2022/08/18 03:16:00;;;;;;;8.68;8.00;;;25.40;99.90;;;;;;5048679;28;20215;-67
2022/08/18 03:18:27;;;;;;;8.77;8.13;;;25.40;99.90;;;;;;5048702;28;20207;-67
2022/08/18 03:21:00;;;;;;;9.05;8.30;;;25.40;99.90;;;;;;5049084;28;20208;-67
2022/08/18 03:23:28;;;;;;;8.80;7.93;;;25.30;99.90;;;;;;5048967;28;20231;-67
2022/08/18 03:25:55;;;;;;;9.90;9.00;;;25.20;99.90;;;;;;5048650;28;20211;-67
2022/08/18 03:28:22;;;;;;;9.10;8.48;;;25.20;99.90;;;;;;5048695;28;20953;-67
2022/08/18 03:30:49;;;;;;;10.30;8.85;;;25.20;99.90;;;;;;5050086;28;20215;-67
2022/08/18 03:33:16;;;;;;;9.38;8.50;;;25.20;99.90;;;;;;5049493;28;20231;-67
2022/08/18 03:35:42;;;;;;;9.50;8.57;;;25.10;99.90;;;;;;5050310;28;20512;-67
2022/08/18 03:38:11;;;;;;;9.20;8.38;;;25.10;99.90;;;;;;5049340;28;20212;-67
2022/08/18 03:40:38;;;;;;;10.05;9.20;;;25.10;99.90;;;;;;5049487;28;20248;-68
2022/08/18 03:43:05;;;;;;;9.30;8.57;;;25.10;99.90;;;;;;5049674;28;20216;-69
2022/08/18 03:45:33;;;;;;;8.80;8.10;;;25.00;99.90;;;;;;5049517;28;20208;-67
2022/08/18 03:48:00;;;;;;;9.95;9.05;;;25.00;99.90;;;;;;5049668;28;20212;-67
2022/08/18 03:50:28;;;;;;;10.27;9.35;;;25.00;99.90;;;;;;5049527;28;20218;-67
2022/08/18 03:52:58;;;;;;;9.38;8.57;;;25.00;99.90;;;;;;5049586;28;20211;-68
2022/08/18 03:55:28;;;;;;;11.15;8.85;;;25.00;99.90;;;;;;5049654;28;20517;-67
2022/08/18 03:57:58;;;;;;;10.00;9.15;;;25.00;99.90;;;;;;5049250;28;20208;-68
2022/08/18 04:00:26;;;;;;;9.50;8.68;;;25.00;99.90;;;;;;5049444;28;20216;-67
2022/08/18 04:02:53;;;;;;;9.20;8.35;;;24.90;99.90;;;;;;5049428;28;20258;-68
2022/08/18 04:05:19;;;;;;;10.68;8.85;;;24.90;99.90;;;;;;5049348;28;20208;-68
2022/08/18 04:07:46;;;;;;;9.77;8.90;;;24.90;99.90;;;;;;5049455;28;20204;-68
2022/08/18 04:10:13;;;;;;;9.45;8.57;;;24.90;99.90;;;;;;5049018;28;20215;-68
2022/08/18 04:12:42;;;;;;;9.50;8.70;;;24.90;99.90;;;;;;5049099;28;20208;-68
2022/08/18 04:15:10;;;;;;;10.75;9.57;;;24.90;99.90;;;;;;5048606;28;20242;-68
2022/08/18 04:17:37;;;;;;;10.10;9.10;;;25.00;99.90;;;;;;5049000;28;20204;-68
2022/08/18 04:20:05;;;;;;;13.85;8.80;;;24.90;99.90;;;;;;5049050;28;20208;-68
2022/08/18 04:22:33;;;;;;;9.80;8.85;;;25.00;99.90;;;;;;5048872;28;20274;-68
2022/08/18 04:25:00;;;;;;;10.10;8.65;;;25.00;99.90;;;;;;5048942;28;20311;-68
2022/08/18 04:27:30;;;;;;;9.90;9.10;;;25.00;99.90;;;;;;5048437;28;20238;-68
2022/08/18 04:29:58;;;;;;;11.10;9.73;;;25.00;99.90;;;;;;5048883;28;20208;-68
2022/08/18 04:32:25;;;;;;;10.07;9.15;;;25.00;99.90;;;;;;5049003;28;20226;-68
2022/08/18 04:34:52;;;;;;;10.10;9.20;;;25.00;99.90;;;;;;5048883;28;20242;-68
2022/08/18 04:37:19;;;;;;;10.38;9.38;;;25.00;99.90;;;;;;5048805;28;20204;-68
2022/08/18 04:39:46;;;;;;;10.43;9.52;;;25.10;99.90;;;;;;5048799;28;20274;-68
2022/08/18 04:42:13;;;;;;;9.95;9.25;;;25.10;99.90;;;;;;5048604;28;20276;-68
2022/08/18 04:44:40;;;;;;;10.50;9.50;;;25.10;99.90;;;;;;5048495;28;20216;-68
2022/08/18 04:47:08;;;;;;;10.10;9.40;;;25.10;99.90;;;;;;5048642;28;20223;-68
2022/08/18 04:49:36;;;;;;;9.82;8.82;;;25.20;99.90;;;;;;5048368;28;20230;-68
2022/08/18 04:54:50;;;;;;;10.65;9.85;;;25.20;99.90;;;;;;5048052;28;20231;-68
2022/08/18 04:57:19;;;;;;;10.00;9.30;;;25.20;99.90;;;;;;5047981;28;20201;-68
2022/08/18 04:59:47;;;;;;;10.55;9.52;;;25.20;99.90;;;;;;5048188;28;20239;-68
2022/08/18 05:02:17;;;;;;;10.43;9.52;;;25.20;99.90;;;;;;5048285;28;20201;-68
2022/08/18 05:04:45;;;;;;;10.10;9.20;;;25.20;99.90;;;;;;5048359;28;20582;-68
2022/08/18 05:07:14;;;;;;;11.20;9.23;;;25.20;99.90;;;;;;5047493;28;20208;-68
2022/08/18 05:09:41;;;;;;;11.60;8.90;;;25.20;99.90;;;;;;5048063;28;20211;-68
2022/08/18 05:12:11;;;;;;;10.80;9.90;;;25.20;99.90;;;;;;5046782;28;20582;-68
2022/08/18 05:14:38;;;;;;;10.02;9.32;;;25.10;99.90;;;;;;5028027;28;20278;-68
2022/08/18 05:17:05;;;;;;;10.48;9.65;;;25.20;99.90;;;;;;5028258;28;20207;-68
2022/08/18 05:19:34;;;;;;;10.27;9.48;;;25.20;99.90;;;;;;5027381;28;20204;-68
2022/08/18 05:22:02;;;;;;;10.40;9.45;;;25.10;99.90;;;;;;5027795;28;20634;-68
2022/08/18 05:24:31;;;;;;;10.35;9.45;;;25.10;99.90;;;;;;5027569;28;20208;-68
2022/08/18 05:26:59;;;;;;;13.85;9.60;;;25.20;99.90;;;;;;5027836;28;20211;-69
2022/08/18 05:29:25;;;;;;;11.00;9.82;;;25.20;99.90;;;;;;5027680;28;20779;-68
2022/08/18 05:31:53;;;;;;;11.23;10.23;;;25.20;99.90;;;;;;5028142;28;20220;-68
2022/08/18 05:34:21;;;;;;;11.57;10.48;;;25.20;99.90;;;;;;5027811;28;20228;-68
2022/08/18 05:37:21;;;;;;;11.25;10.15;;;25.20;99.90;;;;;;5028100;28;20231;-68
2022/08/18 05:39:56;;;;;;;13.05;10.30;;;25.20;99.90;;;;;;5016053;28;20225;-68
2022/08/18 05:42:27;;;;;;;10.88;9.88;;;25.20;99.90;;;;;;5030423;28;20215;-68
2022/08/18 05:44:55;;;;;;;9.90;9.05;;;25.20;99.90;;;;;;5047562;28;20250;-68
2022/08/18 05:47:25;;;;;;;15.20;10.18;;;25.20;99.90;;;;;;5047896;28;20211;-68
2022/08/18 05:49:53;;;;;;;11.07;9.98;;;25.20;99.90;;;;;;5047765;28;20211;-68
2022/08/18 05:52:29;;;;;;;11.05;9.95;;;25.20;99.90;;;;;;5047528;28;20556;-68
2022/08/18 05:57:50;;;;;;;13.13;10.43;;;25.00;99.90;;;;;;5047431;28;20199;-68
2022/08/18 06:00:19;;;;;;;14.00;10.30;;;25.10;99.90;;;;;;5047201;28;20286;-68
2022/08/18 06:02:54;;;;;;;10.48;9.55;;;25.00;99.90;;;;;;5047267;28;20204;-68
2022/08/18 06:05:26;;;;;;;10.80;9.80;;;25.00;99.90;;;;;;5047260;28;20200;-68
2022/08/18 06:07:58;;;;;;;10.48;9.68;;;25.00;99.90;;;;;;5047530;28;20287;-68
2022/08/18 06:10:25;;;;;;;11.10;10.00;;;25.00;99.90;;;;;;5046716;28;20196;-68
2022/08/18 06:12:55;;;;;;;10.63;9.63;;;25.10;99.90;;;;;;5047263;28;20216;-68
2022/08/18 06:15:25;;;;;;;13.15;9.77;;;25.10;99.90;;;;;;5047031;28;20228;-68
2022/08/18 06:18:16;;;;;;;10.98;9.75;;;25.10;99.90;;;;;;5046987;28;20691;-67
2022/08/18 06:21:05;;;;;;;12.20;10.68;;;25.10;99.90;;;;;;5047228;28;20196;-67
2022/08/18 06:23:41;;;;;;;11.20;10.20;;;25.20;99.90;;;;;;5046837;28;20601;-67
2022/08/18 06:26:17;;;;;;;11.05;10.15;;;25.20;99.90;;;;;;5046826;28;20199;-67
2022/08/18 06:28:53;;;;;;;11.85;10.90;;;25.30;99.90;;;;;;5046825;28;20210;-67
2022/08/18 06:31:28;;;;;;;11.40;10.40;;;25.20;99.90;;;;;;5046814;28;20643;-67
2022/08/18 06:34:02;;;;;;;11.07;9.95;;;25.20;99.90;;;;;;5051003;28;20192;-67
2022/08/18 06:36:42;;;;;;;11.95;10.68;;;25.20;99.90;;;;;;5050943;28;20386;-67
2022/08/18 06:39:19;;;;;;;11.23;10.25;;;25.20;99.90;;;;;;5050670;28;20234;-67
2022/08/18 06:41:49;;;;;;;11.63;10.63;;;25.20;99.90;;;;;;5050264;28;20236;-67
2022/08/18 06:44:23;;;;;;;13.20;10.93;;;25.20;99.90;;;;;;5050889;28;20215;-67
2022/08/18 06:46:55;;;;;;;10.98;10.07;;;25.30;99.90;;;;;;5051034;28;20192;-67
2022/08/18 06:49:35;;;;;;;11.32;10.43;;;25.30;99.90;;;;;;5050485;28;20199;-67
2022/08/18 06:52:17;;;;;;;11.27;10.45;;;25.30;99.90;;;;;;5050577;28;20691;-67
2022/08/18 06:54:46;;;;;;;10.68;9.60;;;25.40;99.90;;;;;;5050758;28;20218;-67
2022/08/18 06:57:23;;;;;;;11.15;10.10;;;25.40;99.90;;;;;;5050364;28;20208;-67
2022/08/18 07:00:01;;;;;;;12.75;9.90;;;25.40;99.90;;;;;;5050424;28;20235;-67
2022/08/18 07:02:50;;;;;;;11.93;10.88;;;25.40;99.90;;;;;;5050805;28;20188;-69
2022/08/18 07:05:20;;;;;;;11.88;10.98;;;25.40;99.90;;;;;;5050454;28;20206;-67
2022/08/18 07:08:10;;;;;;;10.95;10.15;;;25.40;99.90;;;;;;5050573;28;20196;-67
2022/08/18 07:10:40;;;;;;;12.02;10.88;;;25.40;99.90;;;;;;5050370;28;20258;-67
2022/08/18 07:13:25;;;;;;;10.57;9.88;;;25.50;99.90;;;;;;5050458;28;20204;-67
2022/08/18 07:15:54;;;;;;;11.52;10.52;;;25.50;99.90;;;;;;5049809;28;20728;-67
2022/08/18 07:18:25;;;;;;;12.43;11.30;;;25.50;99.90;;;;;;5049714;28;20575;-67
2022/08/18 07:20:55;;;;;;;11.70;10.60;;;25.50;99.90;;;;;;5050063;28;20655;-68
2022/08/18 07:23:27;;;;;;;12.07;10.93;;;25.50;99.90;;;;;;5050013;28;20200;-68
2022/08/18 07:26:07;;;;;;;11.52;10.45;;;25.50;99.90;;;;;;5049724;28;20201;-68
2022/08/18 07:28:36;;;;;;;11.88;10.80;;;25.60;99.90;;;;;;5049972;28;20203;-68
2022/08/18 07:31:19;;;;;;;11.93;11.10;;;25.60;99.90;;;;;;5049832;28;20212;-68
2022/08/18 07:33:55;;;;;;;11.40;10.50;;;25.60;99.90;;;;;;5049622;28;20200;-68
2022/08/18 07:36:25;;;;;;;11.85;10.82;;;25.60;99.90;;;;;;5049693;28;20231;-68
2022/08/18 07:38:57;;;;;;;12.65;11.50;;;25.60;99.90;;;;;;5049865;28;20232;-68
2022/08/18 07:41:30;;;;;;;11.73;10.43;;;25.60;99.90;;;;;;5049270;28;20266;-68
2022/08/18 07:44:15;;;;;;;12.55;11.27;;;25.60;99.90;;;;;;5049295;28;20208;-68
2022/08/18 07:46:51;;;;;;;12.13;11.02;;;25.60;99.90;;;;;;5049804;28;20257;-68
2022/08/18 07:49:21;;;;;;;11.98;10.85;;;25.60;99.90;;;;;;5049247;28;20196;-67
2022/08/18 07:51:51;;;;;;;12.05;10.93;;;25.60;99.90;;;;;;5048962;28;20204;-67
2022/08/18 07:54:25;;;;;;;14.10;12.95;;;25.60;99.90;;;;;;5048921;28;20200;-67
2022/08/18 07:57:03;;;;;;;12.88;11.57;;;25.70;99.90;;;;;;5049020;28;20196;-67
2022/08/18 07:59:35;;;;;;;11.77;10.68;;;25.70;99.90;;;;;;5048692;28;20252;-67
2022/08/18 08:02:22;;;;;;;13.10;11.82;;;25.70;99.90;;;;;;5048895;28;20238;-67
2022/08/18 08:05:01;;;;;;;12.23;11.32;;;25.80;99.90;;;;;;5049138;28;20574;-67
2022/08/18 08:07:31;;;;;;;12.95;11.68;;;25.70;99.90;;;;;;5049091;28;20278;-67
2022/08/18 08:10:20;;;;;;;12.40;11.35;;;25.70;99.90;;;;;;5049096;28;20193;-67
2022/08/18 08:12:57;;;;;;;12.93;11.63;;;25.70;99.90;;;;;;5049090;28;20201;-67
2022/08/18 08:15:32;;;;;;;13.18;11.88;;;25.80;99.90;;;;;;5049020;28;20573;-68
2022/08/18 08:18:10;;;;;;;12.52;11.35;;;25.80;99.90;;;;;;5048743;28;20204;-68
2022/08/18 08:20:43;;;;;;;12.40;11.45;;;25.80;99.90;;;;;;5048751;28;20222;-68
2022/08/18 08:23:20;;;;;;;15.02;11.65;;;25.80;99.90;;;;;;5048781;28;20266;-68
2022/08/18 08:25:59;;;;;;;13.50;12.10;;;25.80;99.90;;;;;;5048612;28;20196;-68
2022/08/18 08:28:40;;;;;;;12.55;11.52;;;25.80;99.90;;;;;;5048911;28;20192;-67
2022/08/18 08:31:10;;;;;;;12.43;11.20;;;25.80;99.90;;;;;;5048937;28;20200;-68
2022/08/18 08:33:45;;;;;;;12.32;11.25;;;25.80;99.90;;;;;;5048962;28;20204;-69
2022/08/18 08:36:18;;;;;;;13.38;12.18;;;25.90;99.90;;;;;;5048549;28;20215;-68
2022/08/18 08:38:47;;;;;;;12.52;11.52;;;25.90;99.90;;;;;;5048331;28;20309;-68
2022/08/18 08:41:19;;;;;;;12.77;11.75;;;25.90;99.90;;;;;;5047546;28;20253;-68
2022/08/18 08:43:53;;;;;;;14.05;11.85;;;26.00;99.90;;;;;;5048075;28;20678;-68
2022/08/18 08:46:24;;;;;;;12.95;11.60;;;26.00;99.90;;;;;;5048386;28;20221;-68
2022/08/18 08:49:04;;;;;;;12.57;11.45;;;26.00;99.90;;;;;;5048353;28;20196;-68
2022/08/18 08:51:36;;;;;;;12.88;11.40;;;26.00;99.90;;;;;;5048309;28;21031;-68
2022/08/18 08:54:08;;;;;;;13.32;11.18;;;26.00;99.90;;;;;;5048283;28;20192;-68
2022/08/18 08:56:40;;;;;;;13.50;12.10;;;26.00;99.90;;;;;;5047637;28;20643;-68
2022/08/18 08:59:13;;;;;;;12.65;11.65;;;26.10;99.90;;;;;;5048127;28;20219;-68
2022/08/18 09:01:46;;;;;;;13.50;11.82;;;26.10;99.90;;;;;;5048313;28;20196;-68
2022/08/18 09:04:28;;;;;;;12.57;11.38;;;26.10;99.90;;;;;;5047795;28;20192;-68
2022/08/18 09:07:10;;;;;;;11.60;10.50;;;26.20;99.90;;;;;;5048090;28;20680;-67
2022/08/18 09:10:05;;;;;;;12.68;10.65;;;26.30;99.90;;;;;;5048301;28;20195;-68
2022/08/18 09:12:59;;;;;;;12.00;10.98;;;26.40;99.90;;;;;;5047466;28;20219;-68
2022/08/18 09:15:42;;;;;;;12.70;11.48;;;26.40;99.90;;;;;;5048048;28;20223;-68
2022/08/18 09:18:35;;;;;;;12.80;11.65;;;26.50;99.90;;;;;;5048035;28;20207;-67
2022/08/18 09:21:21;;;;;;;15.15;10.77;;;26.60;99.90;;;;;;5048185;28;20235;-68
2022/08/18 09:23:51;;;;;;;11.75;10.55;;;26.80;99.90;;;;;;5047986;28;20708;-68
2022/08/18 09:26:27;;;;;;;11.77;10.93;;;26.90;99.90;;;;;;5047959;28;20192;-68
2022/08/18 09:28:57;;;;;;;12.68;11.65;;;27.00;99.90;;;;;;5047978;28;20204;-68
2022/08/18 09:31:28;;;;;;;14.48;10.85;;;27.10;99.90;;;;;;5047850;28;20196;-68
2022/08/18 09:34:27;;;;;;;11.13;10.13;;;27.20;99.90;;;;;;5048207;28;20193;-68
2022/08/18 09:37:04;;;;;;;13.18;11.75;;;27.20;99.90;;;;;;5047866;28;20232;-68
2022/08/18 09:42:31;;;;;;;12.40;11.20;;;27.40;99.90;;;;;;5047088;28;20242;-68
2022/08/18 09:45:30;;;;;;;11.38;10.27;;;27.40;99.90;;;;;;5047780;28;20200;-68
2022/08/18 09:48:21;;;;;;;11.00;10.10;;;27.50;99.90;;;;;;5047514;28;20204;-68
2022/08/18 09:51:00;;;;;;;11.60;10.30;;;27.50;99.90;;;;;;5047421;28;20655;-68
2022/08/18 09:54:06;;;;;;;12.23;11.23;;;27.50;99.90;;;;;;5047574;28;20215;-68
2022/08/18 09:57:04;;;;;;;12.13;10.80;;;27.60;99.90;;;;;;5035772;28;20240;-68
2022/08/18 09:59:55;;;;;;;11.18;10.18;;;27.60;99.90;;;;;;5039615;28;20215;-68
2022/08/18 10:02:59;;;;;;;11.45;10.60;;;27.70;99.90;;;;;;5047415;28;20188;-68
2022/08/18 10:05:29;;;;;;;11.32;10.63;;;27.80;99.90;;;;;;5047445;28;20192;-68
2022/08/18 10:08:36;;;;;;;12.80;11.65;;;27.90;99.90;;;;;;5051565;28;20231;-68
2022/08/18 10:11:22;;;;;;;11.65;10.75;;;27.90;99.90;;;;;;5051227;28;20287;-68
2022/08/18 10:14:02;;;;;;;11.98;11.07;;;27.90;99.90;;;;;;5051495;28;20211;-69
2022/08/18 10:16:36;;;;;;;11.57;10.57;;;28.00;99.90;;;;;;5050789;28;20223;-68
2022/08/18 10:19:13;;;;;;;11.48;10.48;;;28.10;99.90;;;;;;5051199;28;20200;-68
2022/08/18 10:22:06;;;;;;;11.65;10.75;;;28.20;99.90;;;;;;5051331;28;20200;-68
2022/08/18 10:24:36;;;;;;;11.50;10.30;;;28.20;99.90;;;;;;5050927;28;20223;-69
2022/08/18 10:27:08;;;;;;;12.10;10.63;;;28.20;99.90;;;;;;5050634;28;20677;-68
2022/08/18 10:29:54;;;;;;;12.23;11.00;;;28.20;99.90;;;;;;5051176;28;20196;-69
2022/08/18 10:32:37;;;;;;;12.13;11.00;;;28.30;99.90;;;;;;5050645;28;20670;-68
2022/08/18 10:35:06;;;;;;;11.00;10.10;;;28.30;99.90;;;;;;5050998;28;20203;-68
2022/08/18 10:37:39;;;;;;;11.65;10.50;;;28.40;99.90;;;;;;5050810;28;20211;-68
2022/08/18 10:40:17;;;;;;;10.73;9.68;;;28.40;99.90;;;;;;5050808;28;20324;-69
2022/08/18 10:42:50;;;;;;;11.95;10.82;;;28.50;99.90;;;;;;5051092;28;20200;-68
2022/08/18 10:45:23;;;;;;;11.00;9.93;;;28.60;99.90;;;;;;5050492;28;20581;-69
2022/08/18 10:48:01;;;;;;;10.85;9.93;;;28.60;99.90;;;;;;5050582;28;20674;-68
2022/08/18 10:50:34;;;;;;;25.85;12.25;;;28.80;99.90;;;;;;5050824;28;20198;-69
2022/08/18 10:53:10;;;;;;;11.40;10.25;;;28.80;99.90;;;;;;5050848;28;20672;-67
2022/08/18 10:55:47;;;;;;;11.52;10.43;;;29.00;99.90;;;;;;5050481;28;20223;-68
2022/08/18 10:58:47;;;;;;;10.88;9.88;;;29.10;99.90;;;;;;5050671;28;20202;-68
2022/08/18 11:01:29;;;;;;;11.25;10.07;;;29.10;99.90;;;;;;5050347;28;20542;-68
2022/08/18 11:04:06;;;;;;;10.65;9.80;;;29.20;99.90;;;;;;5050304;28;20647;-67
2022/08/18 11:06:40;;;;;;;11.52;10.15;;;29.20;99.90;;;;;;5050545;28;20216;-68
2022/08/18 11:09:10;;;;;;;10.45;9.55;;;29.20;99.90;;;;;;5050644;28;20281;-68
2022/08/18 11:11:42;;;;;;;13.55;9.80;;;29.20;99.90;;;;;;5050305;28;20214;-68
2022/08/18 11:14:42;;;;;;;10.45;9.65;;;29.20;99.90;;;;;;5050238;28;20204;-67
2022/08/18 11:17:16;;;;;;;10.48;9.57;;;29.20;99.90;;;;;;5048057;28;20245;-67
2022/08/18 11:19:46;;;;;;;11.05;9.98;;;29.30;99.90;;;;;;5049954;28;20196;-67
2022/08/18 11:22:22;;;;;;;10.38;9.25;;;29.30;99.90;;;;;;5050131;28;20208;-68
2022/08/18 11:24:51;;;;;;;10.25;9.32;;;29.30;99.90;;;;;;5050008;28;20202;-67
2022/08/18 11:27:21;;;;;;;10.57;9.38;;;29.20;99.90;;;;;;5049704;28;20204;-68
2022/08/18 11:29:48;;;;;;;10.27;9.43;;;29.20;99.90;;;;;;5050129;28;20215;-68
2022/08/18 11:32:23;;;;;;;10.80;9.52;;;29.20;99.90;;;;;;5050198;28;20208;-68
2022/08/18 11:34:59;;;;;;;10.02;8.90;;;29.40;99.90;;;;;;5050259;28;20191;-68
2022/08/18 11:37:32;;;;;;;9.82;9.00;;;29.40;99.90;;;;;;5050008;28;20216;-68
2022/08/18 11:40:02;;;;;;;9.40;8.60;;;29.50;99.90;;;;;;5049830;28;20193;-68
2022/08/18 11:42:32;;;;;;;11.35;9.13;;;29.70;99.60;;;;;;5049574;28;20208;-68
2022/08/18 11:45:21;;;;;;;9.23;8.40;;;29.80;99.70;;;;;;5049690;28;20212;-68
2022/08/18 11:48:10;;;;;;;9.95;9.10;;;29.80;99.90;;;;;;5049732;28;20569;-68
2022/08/18 11:50:48;;;;;;;11.35;8.68;;;29.90;99.80;;;;;;5049610;28;20647;-68
2022/08/18 11:53:24;;;;;;;8.35;7.65;;;29.90;99.70;;;;;;5049713;28;20200;-68
2022/08/18 11:56:17;;;;;;;9.07;8.35;;;30.00;98.90;;;;;;5049232;28;20222;-68
2022/08/18 11:58:46;;;;;;;9.60;8.73;;;30.10;99.30;;;;;;5040147;28;20204;-68
2022/08/18 12:01:30;;;;;;;9.00;8.13;;;30.20;99.50;;;;;;5049149;28;20214;-68
2022/08/18 12:03:59;;;;;;;9.10;8.40;;;30.40;98.60;;;;;;5049317;28;20899;-67
2022/08/18 12:06:28;;;;;;;9.80;8.63;;;30.50;98.40;;;;;;5049023;28;20736;-68
2022/08/18 12:09:00;;;;;;;9.20;8.50;;;30.40;98.40;;;;;;5049361;28;20204;-68
2022/08/18 12:11:32;;;;;;;9.15;8.45;;;30.40;98.30;;;;;;5048725;28;20199;-68
2022/08/18 12:14:06;;;;;;;9.75;8.80;;;30.40;98.40;;;;;;5049334;28;20208;-67
2022/08/18 12:16:37;;;;;;;9.55;8.63;;;30.40;98.70;;;;;;5049208;28;20576;-67
2022/08/18 12:19:04;;;;;;;9.30;8.50;;;30.30;98.80;;;;;;5049252;28;20192;-67
2022/08/18 12:21:31;;;;;;;8.48;7.75;;;30.30;98.80;;;;;;5048990;28;20208;-67
2022/08/18 12:23:59;;;;;;;8.73;7.82;;;30.10;98.80;;;;;;5049051;28;20204;-68
2022/08/18 12:26:25;;;;;;;10.40;8.52;;;30.10;99.20;;;;;;5048684;28;20380;-68
2022/08/18 12:28:54;;;;;;;10.18;8.20;;;30.10;99.20;;;;;;5048943;28;20211;-68
2022/08/18 12:31:20;;;;;;;8.95;8.25;;;30.00;99.50;;;;;;5048089;28;20211;-68
2022/08/18 12:33:47;;;;;;;9.18;7.55;;;30.00;99.50;;;;;;5048745;28;20570;-68
2022/08/18 12:36:14;;;;;;;11.35;7.63;;;29.90;99.30;;;;;;5048505;28;20232;-68
2022/08/18 12:38:44;;;;;;;9.55;8.05;;;29.90;99.00;;;;;;5048263;28;20227;-68
2022/08/18 12:41:14;;;;;;;11.38;7.53;;;29.90;99.40;;;;;;5047995;28;20290;-68
2022/08/18 12:43:41;;;;;;;12.48;7.28;;;30.00;98.50;;;;;;5047604;28;20230;-68
2022/08/18 12:46:10;;;;;;;8.55;7.70;;;30.00;98.10;;;;;;5045262;28;20274;-68
2022/08/18 12:48:38;;;;;;;7.90;7.28;;;30.10;98.40;;;;;;5046019;28;20208;-68
2022/08/18 12:51:08;;;;;;;7.65;7.00;;;30.20;98.40;;;;;;5043048;28;20216;-68
2022/08/18 12:53:35;;;;;;;10.00;7.55;;;30.30;97.60;;;;;;5044282;28;20266;-68
2022/08/18 12:56:02;;;;;;;8.38;7.25;;;30.40;97.90;;;;;;5043174;28;20201;-68
2022/08/18 12:58:29;;;;;;;7.60;6.97;;;30.40;97.90;;;;;;5046619;28;20258;-68
2022/08/18 13:00:56;;;;;;;13.45;7.07;;;30.40;98.00;;;;;;5045927;28;20204;-68
2022/08/18 13:03:24;;;;;;;7.20;6.20;;;30.30;97.90;;;;;;5045820;28;20590;-68
2022/08/18 13:05:52;;;;;;;6.90;6.32;;;30.40;97.20;;;;;;5045824;28;20220;-68
2022/08/18 13:08:21;;;;;;;11.05;7.00;;;30.30;97.20;;;;;;5046019;28;20244;-68
2022/08/18 13:10:49;;;;;;;7.60;6.88;;;30.30;97.10;;;;;;5046094;28;20219;-68
2022/08/18 13:13:17;;;;;;;7.07;6.53;;;30.40;97.40;;;;;;5046206;28;20724;-68
2022/08/18 13:15:44;;;;;;;10.27;7.40;;;30.40;97.60;;;;;;5046585;28;20210;-68
2022/08/18 13:18:14;;;;;;;7.53;6.68;;;30.50;97.60;;;;;;5046121;28;20234;-68